Terminal Aerodrome Forecast
Issued by NWS

Home | Current Version | Previous Version | Text Only | Print | Product List | Glossary On
Versions: 1 2 3 4 5 6 7 8 9 10 11 12 13 14 15 16 17 18 19 20 21 22 23 24 25 26
000
FTUS44 KOUN 011742
TAFPNC
TAF
KPNC 011742Z 0118/0218 19013G17KT P6SM SCT035
     FM012300 17009G16KT P6SM BKN040 OVC100
      TEMPO 0123/0203 4SM TSRA OVC040CB
     FM020300 18012KT P6SM BKN040 OVC080
      TEMPO 0203/0207 4SM TSRA OVC040CB
     FM020700 20010KT P6SM BKN040 PROB30 0212/0218 P6SM -TSRA
      BKN040CB=

USA.gov is the U.S. government's official web portal to all federal, state and local government web resources and services.